Time;durP1;ratioP1;P1;durP2;ratioP2;P2;SDS_P1;SDS_P2;PMS_P1;PMS_P2;Temp;Humidity;BMP_temperature;BMP_pressure;BME280_temperature;BME280_humidity;BME280_pressure;Samples;Min_cycle;Max_cycle;Signal;HPM_P1;HPM_P2
2023/05/10 00:00:12;;;;;;;4.63;4.25;;;16.50;99.90;;;;;;2089658;28;20452;-71
2023/05/10 00:01:12;;;;;;;4.85;4.40;;;16.50;99.90;;;;;;2092438;28;20095;-71
2023/05/10 00:02:13;;;;;;;4.43;4.05;;;16.50;99.90;;;;;;2090546;28;20376;-71
2023/05/10 00:03:13;;;;;;;5.35;4.85;;;16.50;99.90;;;;;;2093216;28;20061;-72
2023/05/10 00:04:14;;;;;;;6.55;4.90;;;16.50;99.90;;;;;;2090396;28;20024;-71
2023/05/10 00:05:15;;;;;;;5.15;4.65;;;16.50;99.90;;;;;;2088215;28;20712;-71
2023/05/10 00:06:15;;;;;;;4.57;4.18;;;16.50;99.90;;;;;;2090668;28;20025;-71
2023/05/10 00:07:17;;;;;;;5.68;5.05;;;16.50;99.90;;;;;;2089767;28;20468;-71
2023/05/10 00:08:17;;;;;;;5.95;5.38;;;16.50;99.90;;;;;;2093043;28;20392;-71
2023/05/10 00:09:18;;;;;;;5.53;5.00;;;16.50;99.90;;;;;;2092653;28;20131;-71
2023/05/10 00:10:18;;;;;;;8.07;4.85;;;16.40;99.90;;;;;;2092347;28;20025;-71
2023/05/10 00:11:19;;;;;;;8.18;5.70;;;16.40;99.90;;;;;;2091975;28;20029;-71
2023/05/10 00:12:20;;;;;;;5.30;4.80;;;16.40;99.90;;;;;;2091389;28;20025;-72
2023/05/10 00:13:21;;;;;;;5.85;5.35;;;16.40;99.90;;;;;;2093681;28;21273;-71
2023/05/10 00:14:22;;;;;;;6.45;5.85;;;16.40;99.90;;;;;;2093453;28;20540;-71
2023/05/10 00:15:22;;;;;;;6.68;5.90;;;16.40;99.90;;;;;;2091841;28;20389;-71
2023/05/10 00:16:23;;;;;;;7.45;5.93;;;16.40;99.90;;;;;;2093645;28;20032;-71
2023/05/10 00:17:23;;;;;;;6.30;5.82;;;16.30;99.90;;;;;;2092191;28;20420;-71
2023/05/10 00:18:24;;;;;;;7.20;6.55;;;16.30;99.90;;;;;;2090634;28;20542;-71
2023/05/10 00:19:24;;;;;;;6.88;6.18;;;16.30;99.90;;;;;;2091805;28;20025;-71
2023/05/10 00:20:25;;;;;;;7.95;7.20;;;16.30;99.90;;;;;;2092886;28;20686;-71
2023/05/10 00:21:26;;;;;;;7.70;6.97;;;16.30;99.90;;;;;;2090296;28;20023;-71
2023/05/10 00:22:27;;;;;;;8.10;7.35;;;16.30;99.90;;;;;;2093241;28;20029;-71
2023/05/10 00:23:27;;;;;;;7.20;6.60;;;16.20;99.90;;;;;;2091308;28;20745;-71
2023/05/10 00:24:28;;;;;;;8.00;7.20;;;16.20;99.90;;;;;;2093409;28;20069;-71
2023/05/10 00:25:28;;;;;;;8.07;7.40;;;16.20;99.90;;;;;;2092725;28;20032;-71
2023/05/10 00:26:29;;;;;;;8.63;7.82;;;16.20;99.90;;;;;;2091527;28;20029;-71
2023/05/10 00:27:29;;;;;;;7.90;7.20;;;16.20;99.90;;;;;;2089733;28;20120;-71
2023/05/10 00:28:30;;;;;;;8.45;7.65;;;16.20;99.90;;;;;;2092534;28;20029;-71
2023/05/10 00:29:31;;;;;;;7.38;6.78;;;16.20;99.90;;;;;;2094455;28;20016;-71
2023/05/10 00:30:32;;;;;;;7.15;6.55;;;16.20;99.90;;;;;;2091035;28;20021;-71
2023/05/10 00:31:32;;;;;;;8.48;7.20;;;16.20;99.90;;;;;;2092014;28;20104;-71
2023/05/10 00:32:33;;;;;;;7.75;7.00;;;16.30;99.90;;;;;;2092402;28;20039;-71
2023/05/10 00:33:33;;;;;;;7.50;6.90;;;16.20;99.90;;;;;;2094372;28;20051;-71
2023/05/10 00:34:34;;;;;;;8.95;7.10;;;16.20;99.90;;;;;;2091011;28;20021;-71
2023/05/10 00:35:34;;;;;;;8.05;7.35;;;16.30;99.90;;;;;;2094205;28;20021;-71
2023/05/10 00:36:35;;;;;;;6.70;6.10;;;16.30;99.90;;;;;;2093162;28;20115;-71
2023/05/10 00:37:35;;;;;;;8.15;7.20;;;16.30;99.90;;;;;;2090106;28;20025;-71
2023/05/10 00:38:36;;;;;;;7.75;7.00;;;16.30;99.90;;;;;;2091416;28;20107;-71
2023/05/10 00:39:36;;;;;;;8.38;7.60;;;16.30;99.90;;;;;;2093547;28;20035;-71
2023/05/10 00:40:37;;;;;;;8.73;7.93;;;16.30;99.90;;;;;;2093620;28;20029;-71
2023/05/10 00:41:38;;;;;;;7.82;7.03;;;16.30;99.90;;;;;;2091463;28;20048;-71
2023/05/10 00:42:38;;;;;;;8.07;7.38;;;16.30;99.90;;;;;;2092116;28;20090;-72
2023/05/10 00:43:39;;;;;;;8.60;7.90;;;16.30;99.90;;;;;;2094311;28;20112;-72
2023/05/10 00:44:39;;;;;;;9.27;8.38;;;16.30;99.90;;;;;;2083854;28;20036;-72
2023/05/10 00:45:41;;;;;;;9.18;8.38;;;16.30;99.90;;;;;;2092406;28;20039;-72
2023/05/10 00:46:41;;;;;;;9.85;8.93;;;16.30;99.90;;;;;;2090479;28;20028;-72
2023/05/10 00:47:42;;;;;;;9.45;8.68;;;16.30;99.90;;;;;;2092944;28;20074;-72
2023/05/10 00:48:44;;;;;;;9.30;8.40;;;16.30;99.90;;;;;;2095171;28;20105;-72
2023/05/10 00:49:45;;;;;;;9.38;8.57;;;16.30;99.90;;;;;;2092569;28;20483;-72
2023/05/10 00:50:47;;;;;;;8.40;7.70;;;16.30;99.90;;;;;;2094511;28;20501;-71
2023/05/10 00:51:48;;;;;;;9.93;9.07;;;16.30;99.90;;;;;;2094923;28;20583;-72
2023/05/10 00:52:49;;;;;;;9.65;8.85;;;16.30;99.90;;;;;;2094484;28;20034;-72
2023/05/10 00:53:51;;;;;;;9.82;8.93;;;16.30;99.90;;;;;;2092905;28;20028;-72
2023/05/10 00:54:52;;;;;;;9.65;8.82;;;16.30;99.90;;;;;;2094737;28;20025;-71
2023/05/10 00:55:52;;;;;;;9.70;8.82;;;16.30;99.90;;;;;;2094067;28;20077;-71
2023/05/10 00:56:53;;;;;;;9.10;8.30;;;16.30;99.90;;;;;;2094489;28;20037;-72
2023/05/10 00:57:54;;;;;;;10.05;8.88;;;16.30;99.90;;;;;;2094113;28;20143;-72
2023/05/10 00:58:55;;;;;;;7.68;7.07;;;16.30;99.90;;;;;;2096140;28;20063;-72
2023/05/10 00:59:56;;;;;;;9.18;8.38;;;16.30;99.90;;;;;;2092606;28;20043;-72
2023/05/10 01:00:58;;;;;;;11.00;10.00;;;16.30;99.90;;;;;;2094011;28;20464;-72
2023/05/10 01:01:58;;;;;;;10.38;9.48;;;16.40;99.90;;;;;;2094270;28;20032;-72
2023/05/10 01:02:59;;;;;;;11.35;10.30;;;16.40;99.90;;;;;;2093965;28;20025;-72
2023/05/10 01:04:00;;;;;;;11.70;10.55;;;16.40;99.90;;;;;;2093187;28;20020;-72
2023/05/10 01:05:03;;;;;;;10.60;9.65;;;16.40;99.90;;;;;;2093675;28;20044;-72
2023/05/10 01:06:04;;;;;;;10.88;9.98;;;16.30;99.90;;;;;;2091426;28;20381;-72
2023/05/10 01:07:04;;;;;;;10.95;10.05;;;16.30;99.90;;;;;;2092658;28;20051;-72
2023/05/10 01:08:06;;;;;;;11.95;10.93;;;16.30;99.90;;;;;;2093272;28;20025;-72
2023/05/10 01:09:06;;;;;;;12.23;11.00;;;16.30;99.90;;;;;;2093059;28;20025;-72
2023/05/10 01:10:08;;;;;;;11.05;10.15;;;16.30;99.90;;;;;;2092742;28;20028;-72
2023/05/10 01:11:09;;;;;;;10.73;9.73;;;16.30;99.90;;;;;;2094204;28;20027;-72
2023/05/10 01:12:10;;;;;;;11.30;10.30;;;16.30;99.90;;;;;;2092382;28;20017;-72
2023/05/10 01:13:12;;;;;;;10.88;9.98;;;16.30;99.90;;;;;;2091459;28;20052;-72
2023/05/10 01:14:12;;;;;;;12.00;10.95;;;16.30;99.90;;;;;;2091159;28;20052;-72
2023/05/10 01:15:14;;;;;;;11.68;10.57;;;16.30;99.90;;;;;;2091110;28;20017;-72
2023/05/10 01:16:15;;;;;;;11.40;10.50;;;16.30;99.90;;;;;;2092427;28;20072;-72
2023/05/10 01:17:17;;;;;;;11.85;10.77;;;16.30;99.90;;;;;;2093262;28;20020;-72
2023/05/10 01:18:20;;;;;;;12.13;10.93;;;16.30;99.90;;;;;;2092059;28;20032;-72
2023/05/10 01:19:27;;;;;;;11.45;10.35;;;16.30;99.90;;;;;;2093830;28;20118;-72
2023/05/10 01:20:36;;;;;;;12.70;11.48;;;16.30;99.90;;;;;;2092217;28;20028;-72
2023/05/10 01:21:56;;;;;;;11.40;10.30;;;16.30;99.90;;;;;;2093709;28;20067;-72
2023/05/10 01:23:30;;;;;;;12.40;10.73;;;16.20;99.90;;;;;;2093079;28;20029;-72
2023/05/10 01:24:48;;;;;;;11.43;10.43;;;16.20;99.90;;;;;;2095309;28;20202;-72
2023/05/10 01:25:54;;;;;;;11.35;10.35;;;16.20;99.90;;;;;;2091088;28;20028;-72
2023/05/10 01:27:13;;;;;;;9.50;8.70;;;16.20;99.90;;;;;;2093882;28;20043;-72
2023/05/10 01:28:38;;;;;;;9.00;8.20;;;16.20;99.90;;;;;;2093667;28;20052;-72
2023/05/10 01:30:04;;;;;;;9.13;8.20;;;16.10;99.90;;;;;;2093441;28;20032;-72
2023/05/10 01:31:04;;;;;;;7.53;6.82;;;16.10;99.90;;;;;;2095909;28;20028;-72
2023/05/10 01:32:20;;;;;;;7.07;6.47;;;16.10;99.90;;;;;;2093862;28;20031;-72
2023/05/10 01:33:33;;;;;;;5.18;4.68;;;16.10;99.90;;;;;;2092034;28;20016;-72
2023/05/10 01:35:04;;;;;;;4.05;3.75;;;16.00;99.90;;;;;;2093643;28;20036;-72
2023/05/10 01:36:39;;;;;;;4.00;3.70;;;16.00;99.90;;;;;;2088648;28;20029;-72
2023/05/10 01:37:46;;;;;;;4.13;3.58;;;15.90;99.90;;;;;;2092386;28;20029;-72
2023/05/10 01:38:57;;;;;;;3.90;3.60;;;15.90;99.90;;;;;;2091450;28;22225;-72
2023/05/10 01:40:09;;;;;;;3.95;3.58;;;15.90;99.90;;;;;;2091847;28;20159;-72
2023/05/10 01:41:10;;;;;;;4.13;3.67;;;15.90;99.90;;;;;;2094819;28;20021;-72
2023/05/10 01:42:16;;;;;;;4.20;3.90;;;15.90;99.90;;;;;;2092166;28;20473;-72
2023/05/10 01:43:49;;;;;;;4.43;4.03;;;15.90;99.90;;;;;;2092832;28;20049;-71
2023/05/10 01:45:11;;;;;;;3.58;3.33;;;15.80;99.90;;;;;;2090404;28;20035;-72
2023/05/10 01:46:20;;;;;;;4.25;3.90;;;15.90;99.90;;;;;;2092818;28;20108;-72
2023/05/10 01:47:30;;;;;;;4.70;4.22;;;15.80;99.90;;;;;;2091401;28;20040;-72
2023/05/10 01:48:33;;;;;;;3.88;3.58;;;15.90;99.90;;;;;;2091858;28;20025;-72
2023/05/10 01:49:41;;;;;;;4.60;4.30;;;15.90;99.90;;;;;;2094210;28;20102;-72
2023/05/10 01:50:45;;;;;;;4.10;3.70;;;15.90;99.90;;;;;;2092065;28;20431;-72
2023/05/10 01:51:51;;;;;;;4.90;4.50;;;15.90;99.90;;;;;;2091537;28;20020;-72
2023/05/10 01:52:54;;;;;;;4.20;3.90;;;15.90;99.90;;;;;;2093176;28;20044;-72
2023/05/10 01:54:02;;;;;;;4.57;4.15;;;15.80;99.90;;;;;;2094756;28;20055;-72
2023/05/10 01:55:06;;;;;;;3.50;3.25;;;15.80;99.90;;;;;;2093845;28;20025;-72
2023/05/10 01:56:08;;;;;;;4.75;4.00;;;15.80;99.90;;;;;;2091840;28;21275;-72
2023/05/10 01:57:13;;;;;;;3.85;3.42;;;15.80;99.90;;;;;;2095139;28;20455;-72
2023/05/10 01:58:19;;;;;;;3.90;3.60;;;15.80;99.90;;;;;;2092946;28;20700;-72
2023/05/10 01:59:22;;;;;;;4.38;3.97;;;15.80;99.90;;;;;;2092194;28;20360;-72
2023/05/10 02:00:23;;;;;;;4.40;4.07;;;15.80;99.90;;;;;;2093866;28;20661;-72
2023/05/10 02:01:26;;;;;;;4.68;4.22;;;15.80;99.90;;;;;;2092631;28;20599;-72
2023/05/10 02:02:28;;;;;;;4.45;4.05;;;15.80;99.90;;;;;;2094573;28;20017;-72
2023/05/10 02:03:31;;;;;;;4.07;3.78;;;15.80;99.90;;;;;;2094827;28;21119;-72
2023/05/10 02:04:37;;;;;;;4.75;4.38;;;15.80;99.90;;;;;;2093251;28;20481;-72
2023/05/10 02:05:39;;;;;;;5.00;4.60;;;15.80;99.90;;;;;;2093733;28;20025;-72
2023/05/10 02:06:41;;;;;;;5.50;5.00;;;15.80;99.90;;;;;;2093830;28;20468;-72
2023/05/10 02:07:43;;;;;;;4.80;4.40;;;15.80;99.90;;;;;;2090679;28;20044;-72
2023/05/10 02:08:46;;;;;;;5.30;4.85;;;15.80;99.90;;;;;;2093417;28;20032;-72
2023/05/10 02:09:47;;;;;;;5.85;5.30;;;15.80;99.90;;;;;;2092963;28;20028;-72
2023/05/10 02:10:52;;;;;;;5.85;5.25;;;15.80;99.90;;;;;;2094315;28;20116;-72
2023/05/10 02:11:54;;;;;;;5.80;5.30;;;15.80;99.90;;;;;;2092401;28;20099;-72
2023/05/10 02:12:58;;;;;;;5.40;5.00;;;15.80;99.90;;;;;;2092435;28;20120;-72
2023/05/10 02:14:01;;;;;;;6.15;5.47;;;15.80;99.90;;;;;;2091409;28;20117;-72
2023/05/10 02:15:04;;;;;;;6.45;5.50;;;15.90;99.90;;;;;;2092486;28;20111;-72
2023/05/10 02:16:05;;;;;;;6.90;5.53;;;15.90;99.90;;;;;;2092397;28;20289;-72
2023/05/10 02:17:08;;;;;;;6.18;5.60;;;15.80;99.90;;;;;;2094986;28;20024;-72
2023/05/10 02:18:11;;;;;;;6.53;5.75;;;15.80;99.90;;;;;;2095483;28;20029;-72
2023/05/10 02:19:14;;;;;;;10.38;6.85;;;15.90;99.90;;;;;;2092842;28;20028;-72
2023/05/10 02:20:16;;;;;;;6.38;5.78;;;15.90;99.90;;;;;;2093201;28;20790;-72
2023/05/10 02:21:17;;;;;;;6.75;6.13;;;15.80;99.90;;;;;;2090702;28;20033;-72
2023/05/10 02:22:19;;;;;;;6.40;5.78;;;15.80;99.90;;;;;;2091552;28;20112;-72
2023/05/10 02:23:20;;;;;;;6.65;5.95;;;15.90;99.90;;;;;;2095175;28;20104;-72
2023/05/10 02:24:22;;;;;;;6.32;5.75;;;15.90;99.90;;;;;;2091887;28;20038;-73
2023/05/10 02:25:25;;;;;;;5.90;5.40;;;15.90;99.90;;;;;;2093099;28;20013;-72
2023/05/10 02:26:26;;;;;;;6.53;5.93;;;15.80;99.90;;;;;;2093470;28;20023;-72
2023/05/10 02:27:28;;;;;;;6.40;5.82;;;15.80;99.90;;;;;;2093454;28;20038;-72
2023/05/10 02:28:31;;;;;;;7.35;6.65;;;15.80;99.90;;;;;;2092111;28;20025;-72
2023/05/10 02:29:33;;;;;;;7.97;7.18;;;15.80;99.90;;;;;;2092485;28;20044;-72
2023/05/10 02:30:34;;;;;;;7.35;6.65;;;15.80;99.90;;;;;;2093661;28;20024;-72
2023/05/10 02:31:35;;;;;;;7.50;6.80;;;15.80;99.90;;;;;;2092844;28;20056;-72
2023/05/10 02:32:37;;;;;;;7.22;6.63;;;15.80;99.90;;;;;;2093423;28;20028;-72
2023/05/10 02:33:42;;;;;;;6.88;6.28;;;15.80;99.90;;;;;;2092527;28;20033;-72
2023/05/10 02:34:44;;;;;;;7.28;6.60;;;15.80;99.90;;;;;;2094049;28;20032;-72
2023/05/10 02:35:46;;;;;;;6.78;6.18;;;15.70;99.90;;;;;;2092315;28;20025;-72
2023/05/10 02:36:47;;;;;;;8.18;6.30;;;15.70;99.90;;;;;;2092067;28;20094;-72
2023/05/10 02:37:50;;;;;;;6.10;5.60;;;15.70;99.90;;;;;;2094465;28;20619;-72
2023/05/10 02:38:53;;;;;;;6.78;6.18;;;15.70;99.90;;;;;;2091758;28;20095;-72
2023/05/10 02:39:56;;;;;;;6.82;6.22;;;15.70;99.90;;;;;;2091951;28;20028;-72
2023/05/10 02:40:58;;;;;;;5.22;4.82;;;15.70;99.90;;;;;;2090976;28;20115;-72
2023/05/10 02:42:00;;;;;;;6.80;6.10;;;15.60;99.90;;;;;;2092945;28;20052;-73
2023/05/10 02:43:02;;;;;;;5.95;5.45;;;15.60;99.90;;;;;;2092784;28;20036;-72
2023/05/10 02:44:06;;;;;;;6.68;5.68;;;15.60;99.90;;;;;;2091762;28;20028;-72
2023/05/10 02:45:17;;;;;;;5.85;5.18;;;15.60;99.90;;;;;;2091845;28;20028;-72
2023/05/10 02:46:18;;;;;;;6.47;5.75;;;15.70;99.90;;;;;;2092066;28;20483;-72
2023/05/10 02:47:19;;;;;;;5.63;5.03;;;15.60;99.90;;;;;;2091513;28;20062;-72
2023/05/10 02:48:19;;;;;;;6.22;5.63;;;15.60;99.90;;;;;;2093261;28;20117;-72
2023/05/10 02:49:20;;;;;;;6.32;5.72;;;15.70;99.90;;;;;;2094046;28;20444;-72
2023/05/10 02:50:22;;;;;;;5.55;5.05;;;15.70;99.90;;;;;;2093606;28;20021;-72
2023/05/10 02:51:28;;;;;;;5.88;5.38;;;15.70;99.90;;;;;;2093408;28;20040;-72
2023/05/10 02:52:36;;;;;;;9.20;5.25;;;15.70;99.90;;;;;;2094596;28;21274;-72
2023/05/10 02:53:40;;;;;;;10.00;5.82;;;15.70;99.90;;;;;;2094837;28;20044;-72
2023/05/10 02:54:52;;;;;;;6.57;5.97;;;15.70;99.90;;;;;;2095139;28;20086;-72
2023/05/10 02:55:59;;;;;;;5.30;4.80;;;15.70;99.90;;;;;;2092555;28;20522;-72
2023/05/10 02:57:04;;;;;;;6.07;5.47;;;15.70;99.90;;;;;;2094211;28;20523;-72
2023/05/10 02:58:06;;;;;;;5.90;5.22;;;15.70;99.90;;;;;;2090067;28;20614;-72
2023/05/10 02:59:06;;;;;;;5.65;5.15;;;15.70;99.90;;;;;;2100842;28;20032;-72
2023/05/10 03:00:08;;;;;;;6.45;5.40;;;15.70;99.90;;;;;;2101727;28;20028;-72
2023/05/10 03:01:09;;;;;;;6.05;5.53;;;15.70;99.90;;;;;;2094987;28;20136;-72
2023/05/10 03:02:10;;;;;;;5.70;4.85;;;15.70;99.90;;;;;;2095481;28;20040;-72
2023/05/10 03:03:11;;;;;;;4.60;4.20;;;15.70;99.90;;;;;;2093208;28;20043;-72
2023/05/10 03:04:12;;;;;;;6.40;5.10;;;15.70;99.90;;;;;;2092576;28;20492;-72
2023/05/10 03:05:12;;;;;;;7.32;6.22;;;15.80;99.90;;;;;;2093602;28;20020;-72
2023/05/10 03:06:13;;;;;;;7.57;6.88;;;15.80;99.90;;;;;;2092688;28;20029;-72
2023/05/10 03:07:13;;;;;;;6.32;5.47;;;15.80;99.90;;;;;;2092883;28;20102;-72
2023/05/10 03:08:14;;;;;;;7.57;6.88;;;15.70;99.90;;;;;;2092390;28;20035;-72
2023/05/10 03:09:15;;;;;;;8.98;8.15;;;15.80;99.90;;;;;;2093079;28;20017;-72
2023/05/10 03:10:16;;;;;;;9.57;8.68;;;15.80;99.90;;;;;;2092234;28;20484;-72
2023/05/10 03:11:35;;;;;;;7.40;6.75;;;15.80;99.90;;;;;;2095450;28;20099;-72
2023/05/10 03:12:55;;;;;;;9.05;8.18;;;15.80;99.90;;;;;;2095839;28;20097;-72
2023/05/10 03:14:38;;;;;;;10.57;9.05;;;15.70;99.90;;;;;;2091602;28;20493;-72
2023/05/10 03:16:07;;;;;;;9.02;8.15;;;15.70;99.90;;;;;;2092349;28;20029;-72
2023/05/10 03:17:23;;;;;;;10.68;9.50;;;15.70;99.90;;;;;;2094138;28;20040;-72
2023/05/10 03:18:49;;;;;;;7.90;7.20;;;15.70;99.90;;;;;;2093471;28;20131;-72
2023/05/10 03:19:54;;;;;;;8.40;7.65;;;15.70;99.90;;;;;;2077758;28;20116;-72
2023/05/10 03:21:05;;;;;;;11.18;10.10;;;15.70;99.90;;;;;;2090317;28;20070;-72
2023/05/10 03:22:10;;;;;;;10.88;9.80;;;15.70;99.90;;;;;;2093062;28;20021;-72
2023/05/10 03:23:24;;;;;;;8.05;7.15;;;15.70;99.90;;;;;;2091502;28;20035;-72
2023/05/10 03:24:28;;;;;;;10.90;9.90;;;15.70;99.90;;;;;;2091260;28;20055;-72
2023/05/10 03:25:30;;;;;;;11.88;10.68;;;15.60;99.90;;;;;;2090688;28;20020;-72
2023/05/10 03:26:32;;;;;;;12.50;11.25;;;15.60;99.90;;;;;;2093507;28;20428;-72
2023/05/10 03:27:35;;;;;;;12.73;11.43;;;15.60;99.90;;;;;;2090672;28;20116;-72
2023/05/10 03:28:36;;;;;;;12.40;11.27;;;15.60;99.90;;;;;;2089740;28;20116;-72
2023/05/10 03:29:37;;;;;;;12.73;11.43;;;15.60;99.90;;;;;;2096169;28;20093;-72
2023/05/10 03:30:38;;;;;;;11.70;10.50;;;15.60;99.90;;;;;;2096006;28;20081;-72
2023/05/10 03:31:39;;;;;;;12.23;8.00;;;15.60;99.90;;;;;;2092498;28;20078;-72
2023/05/10 03:32:40;;;;;;;12.73;11.50;;;15.60;99.90;;;;;;2091094;28;20017;-72
2023/05/10 03:33:52;;;;;;;12.73;11.60;;;15.60;99.90;;;;;;2093189;28;20083;-72
2023/05/10 03:34:52;;;;;;;11.95;10.85;;;15.60;99.90;;;;;;2091879;28;20032;-72
2023/05/10 03:35:53;;;;;;;11.18;10.05;;;15.60;99.90;;;;;;2092252;28;20106;-72
2023/05/10 03:36:53;;;;;;;12.75;11.45;;;15.60;99.90;;;;;;2092828;28;20632;-72
2023/05/10 03:37:54;;;;;;;12.60;11.32;;;15.60;99.90;;;;;;2092208;28;20024;-72
2023/05/10 03:38:55;;;;;;;12.40;11.15;;;15.60;99.90;;;;;;2091682;28;20025;-72
2023/05/10 03:39:55;;;;;;;12.82;11.55;;;15.60;99.90;;;;;;2090874;28;20032;-72
2023/05/10 03:40:56;;;;;;;12.77;11.63;;;15.60;99.90;;;;;;2091145;28;20029;-72
2023/05/10 03:41:56;;;;;;;12.07;10.88;;;15.60;99.90;;;;;;2091197;28;20064;-72
2023/05/10 03:42:57;;;;;;;12.50;11.35;;;15.70;99.90;;;;;;2092203;28;20871;-72
2023/05/10 03:43:58;;;;;;;13.57;10.18;;;15.70;99.90;;;;;;2091169;28;20029;-72
2023/05/10 03:44:58;;;;;;;12.48;11.25;;;15.70;99.90;;;;;;2093637;28;20036;-72
2023/05/10 03:46:02;;;;;;;13.27;11.05;;;15.70;99.90;;;;;;2092389;28;20103;-72
2023/05/10 03:47:02;;;;;;;12.02;10.70;;;15.70;99.90;;;;;;2092959;28;20028;-72
2023/05/10 03:48:03;;;;;;;13.05;11.50;;;15.70;99.90;;;;;;2093861;28;20027;-72
2023/05/10 03:49:04;;;;;;;10.93;9.93;;;15.70;99.90;;;;;;2090447;28;20033;-72
2023/05/10 03:50:05;;;;;;;12.90;11.60;;;15.70;99.90;;;;;;2095370;28;20034;-72
2023/05/10 03:51:05;;;;;;;12.98;11.68;;;15.70;99.90;;;;;;2098654;28;20375;-72
2023/05/10 03:52:06;;;;;;;13.07;11.80;;;15.70;99.90;;;;;;2092636;28;20059;-72
2023/05/10 03:53:06;;;;;;;11.90;10.75;;;15.70;99.90;;;;;;2091062;28;20017;-72
2023/05/10 03:54:07;;;;;;;13.55;12.15;;;15.70;99.90;;;;;;2089353;28;20056;-72
2023/05/10 03:55:08;;;;;;;11.25;10.07;;;15.70;99.90;;;;;;2092177;28;20028;-72
2023/05/10 03:56:08;;;;;;;13.70;10.32;;;15.70;99.90;;;;;;2090070;28;20484;-72
2023/05/10 03:57:09;;;;;;;13.30;11.00;;;15.70;99.90;;;;;;2090560;28;20469;-72
2023/05/10 03:58:12;;;;;;;11.10;10.07;;;15.70;99.90;;;;;;2090022;28;20630;-72
2023/05/10 03:59:13;;;;;;;12.90;11.52;;;15.70;99.90;;;;;;2092984;28;20376;-72
2023/05/10 04:00:14;;;;;;;13.07;11.77;;;15.60;99.90;;;;;;2092341;28;20059;-72
2023/05/10 04:01:14;;;;;;;12.40;11.10;;;15.70;99.90;;;;;;2091082;28;20036;-72
2023/05/10 04:02:15;;;;;;;12.43;11.23;;;15.70;99.90;;;;;;2090624;28;20029;-72
2023/05/10 04:03:16;;;;;;;15.80;12.40;;;15.70;99.90;;;;;;2092149;28;20649;-72
2023/05/10 04:04:18;;;;;;;12.82;11.13;;;15.70;99.90;;;;;;2093948;28;20024;-72
2023/05/10 04:05:18;;;;;;;13.18;10.57;;;15.70;99.90;;;;;;2093161;28;20032;-72
2023/05/10 04:06:19;;;;;;;11.15;10.05;;;15.70;99.90;;;;;;2093296;28;20055;-72
2023/05/10 04:07:19;;;;;;;13.98;12.55;;;15.70;99.90;;;;;;2092351;28;20032;-72
2023/05/10 04:08:20;;;;;;;12.68;11.38;;;15.70;99.90;;;;;;2091329;28;20024;-72
2023/05/10 04:09:20;;;;;;;13.85;12.32;;;15.70;99.90;;;;;;2093959;28;21007;-72
2023/05/10 04:10:21;;;;;;;11.18;10.00;;;15.70;99.90;;;;;;2091542;28;20022;-72
2023/05/10 04:11:22;;;;;;;12.80;10.70;;;15.70;99.90;;;;;;2089386;28;20013;-72
2023/05/10 04:12:23;;;;;;;15.80;11.65;;;15.70;99.90;;;;;;2090669;28;20155;-72
2023/05/10 04:13:23;;;;;;;10.75;9.65;;;15.70;99.90;;;;;;2090134;28;20030;-72
2023/05/10 04:14:24;;;;;;;12.70;11.38;;;15.70;99.90;;;;;;2093457;28;20853;-72
2023/05/10 04:15:24;;;;;;;14.23;12.15;;;15.70;99.90;;;;;;2091776;28;20031;-72
2023/05/10 04:16:25;;;;;;;12.88;11.27;;;15.70;99.90;;;;;;2093017;28;20128;-72
2023/05/10 04:17:25;;;;;;;15.88;13.52;;;15.70;99.90;;;;;;2091760;28;20036;-72
2023/05/10 04:18:26;;;;;;;15.50;13.90;;;15.70;99.90;;;;;;2092155;28;20030;-72
2023/05/10 04:19:30;;;;;;;18.50;15.00;;;15.70;99.90;;;;;;2093989;28;20028;-72
2023/05/10 04:20:32;;;;;;;18.02;14.93;;;15.70;99.90;;;;;;2089509;28;20098;-72
2023/05/10 04:21:32;;;;;;;17.75;14.75;;;15.70;99.90;;;;;;2090789;28;20032;-72
2023/05/10 04:22:33;;;;;;;16.60;14.88;;;15.70;99.90;;;;;;2091999;28;20064;-72
2023/05/10 04:23:33;;;;;;;18.63;16.30;;;15.70;99.90;;;;;;2093229;28;20555;-72
2023/05/10 04:24:34;;;;;;;19.15;16.60;;;15.70;99.90;;;;;;2092436;28;20385;-72
2023/05/10 04:25:35;;;;;;;17.55;15.73;;;15.70;99.90;;;;;;2091966;28;20047;-72
2023/05/10 04:26:35;;;;;;;18.63;16.60;;;15.70;99.90;;;;;;2092531;28;20024;-72
2023/05/10 04:27:36;;;;;;;18.98;16.98;;;15.70;99.90;;;;;;2092705;28;20081;-72
2023/05/10 04:28:37;;;;;;;19.80;17.65;;;15.70;99.90;;;;;;2093741;28;20039;-72
2023/05/10 04:29:38;;;;;;;19.85;17.02;;;15.70;99.90;;;;;;2091880;28;20028;-72
2023/05/10 04:30:38;;;;;;;19.75;17.65;;;15.70;99.90;;;;;;2090892;28;20037;-72
2023/05/10 04:31:39;;;;;;;20.98;17.92;;;15.70;99.90;;;;;;2091177;28;20591;-72
2023/05/10 04:32:40;;;;;;;18.52;16.15;;;15.70;99.90;;;;;;2089940;28;20107;-72
2023/05/10 04:33:40;;;;;;;20.85;17.35;;;15.70;99.90;;;;;;2090892;28;20056;-72
2023/05/10 04:34:41;;;;;;;18.05;14.32;;;15.70;99.90;;;;;;2090436;28;20044;-72
2023/05/10 04:35:41;;;;;;;16.13;14.43;;;15.70;99.90;;;;;;2092077;28;20028;-72
2023/05/10 04:36:42;;;;;;;22.83;18.85;;;15.70;99.90;;;;;;2091094;28;20033;-72
2023/05/10 04:37:43;;;;;;;19.52;17.48;;;15.70;99.90;;;;;;2092332;28;20037;-72
2023/05/10 04:38:43;;;;;;;20.55;18.35;;;15.70;99.90;;;;;;2091215;28;20039;-72
2023/05/10 04:39:44;;;;;;;21.05;18.58;;;15.70;99.90;;;;;;2093613;28;20038;-72
2023/05/10 04:40:44;;;;;;;19.30;16.77;;;15.80;99.90;;;;;;2092293;28;20036;-72
2023/05/10 04:41:45;;;;;;;24.08;19.88;;;15.80;99.90;;;;;;2092207;28;20640;-72
2023/05/10 04:42:46;;;;;;;20.73;16.48;;;15.80;99.90;;;;;;2090222;28;20111;-72
2023/05/10 04:43:48;;;;;;;23.08;19.38;;;15.80;99.90;;;;;;2090567;28;20051;-72
2023/05/10 04:44:49;;;;;;;23.48;19.42;;;15.70;99.90;;;;;;2091980;28;20017;-72
2023/05/10 04:45:50;;;;;;;20.98;18.80;;;15.80;99.90;;;;;;2089716;28;20025;-72
2023/05/10 04:46:50;;;;;;;25.40;20.75;;;15.80;99.90;;;;;;2088883;28;20028;-72
2023/05/10 04:47:51;;;;;;;21.58;19.27;;;15.80;99.90;;;;;;2089614;28;20112;-72
2023/05/10 04:48:51;;;;;;;25.33;21.40;;;15.80;99.90;;;;;;2091776;28;20028;-72
2023/05/10 04:49:52;;;;;;;24.38;20.73;;;15.80;99.90;;;;;;2091268;28;20389;-72
2023/05/10 04:50:52;;;;;;;25.25;21.70;;;15.80;99.90;;;;;;2094093;28;20464;-72
2023/05/10 04:51:53;;;;;;;26.73;21.98;;;15.80;99.90;;;;;;2092020;28;20121;-72
2023/05/10 04:52:53;;;;;;;27.88;24.52;;;15.80;99.90;;;;;;2093495;28;20109;-72
2023/05/10 04:53:54;;;;;;;32.05;26.25;;;15.80;99.90;;;;;;2092483;28;20513;-72
2023/05/10 04:54:55;;;;;;;28.60;24.30;;;15.80;99.90;;;;;;2090245;28;20020;-72
2023/05/10 04:55:55;;;;;;;29.50;23.95;;;15.80;99.90;;;;;;2092751;28;20029;-72
2023/05/10 04:56:56;;;;;;;27.33;24.15;;;15.80;99.90;;;;;;2092934;28;20061;-72
2023/05/10 04:57:57;;;;;;;28.85;25.20;;;15.90;99.90;;;;;;2091728;28;20028;-72
2023/05/10 04:58:57;;;;;;;30.35;23.67;;;15.80;99.90;;;;;;2093374;28;20785;-72
2023/05/10 04:59:59;;;;;;;28.67;24.00;;;15.80;99.90;;;;;;2092680;28;20899;-72
2023/05/10 05:01:07;;;;;;;29.65;25.10;;;15.90;99.90;;;;;;2092828;28;20548;-72
2023/05/10 05:02:08;;;;;;;31.80;25.58;;;15.90;99.90;;;;;;2091379;28;20029;-72
2023/05/10 05:03:09;;;;;;;27.10;23.27;;;15.80;99.90;;;;;;2092929;28;20031;-72
2023/05/10 05:04:10;;;;;;;31.33;26.70;;;15.90;99.90;;;;;;2094647;28;20025;-72
2023/05/10 05:05:10;;;;;;;31.48;26.63;;;15.90;99.90;;;;;;2090976;28;20028;-72
2023/05/10 05:06:11;;;;;;;32.53;26.40;;;15.80;99.90;;;;;;2091070;28;20032;-72
2023/05/10 05:07:11;;;;;;;33.95;27.35;;;15.80;99.90;;;;;;2091823;28;20024;-72
2023/05/10 05:08:12;;;;;;;35.97;29.60;;;15.80;99.90;;;;;;2093042;28;20034;-72
2023/05/10 05:09:13;;;;;;;29.42;26.17;;;15.80;99.90;;;;;;2093219;28;20058;-72
2023/05/10 05:10:13;;;;;;;32.45;27.80;;;15.90;99.90;;;;;;2094281;28;20418;-72
2023/05/10 05:11:14;;;;;;;34.47;29.10;;;15.90;99.90;;;;;;2091625;28;20082;-72
2023/05/10 05:12:14;;;;;;;34.42;27.30;;;15.80;99.90;;;;;;2093334;28;20052;-72
2023/05/10 05:13:15;;;;;;;36.30;28.42;;;15.80;99.90;;;;;;2093903;28;20058;-72
2023/05/10 05:14:15;;;;;;;34.17;27.50;;;15.80;99.90;;;;;;2093402;28;20056;-72
2023/05/10 05:15:16;;;;;;;35.63;28.65;;;15.80;99.90;;;;;;2092446;28;20028;-72
2023/05/10 05:16:17;;;;;;;39.25;29.50;;;15.80;99.90;;;;;;2093511;28;20032;-72
2023/05/10 05:17:17;;;;;;;39.08;29.48;;;15.80;99.90;;;;;;2092322;28;20024;-72
2023/05/10 05:18:18;;;;;;;40.53;29.75;;;15.80;99.90;;;;;;2094147;28;20025;-72
2023/05/10 05:19:18;;;;;;;40.65;30.95;;;15.80;99.90;;;;;;2094021;28;20025;-72
2023/05/10 05:20:19;;;;;;;40.00;30.50;;;15.80;99.90;;;;;;2091352;28;20063;-72
2023/05/10 05:21:20;;;;;;;47.65;31.45;;;15.80;99.90;;;;;;2095087;28;20059;-72
2023/05/10 05:22:27;;;;;;;43.92;30.77;;;15.80;99.90;;;;;;2093264;28;20040;-72
2023/05/10 05:23:27;;;;;;;44.53;30.35;;;15.80;99.90;;;;;;2091981;28;20530;-72
2023/05/10 05:24:28;;;;;;;41.80;30.27;;;15.80;99.90;;;;;;2090683;28;20583;-72